sensor_id;sensor_type;location;lat;lon;timestamp;P1;durP1;ratioP1;P2;durP2;ratioP2
27412;SDS011;14871;52.702;5.230;2023-09-18T00:01:39;46.58;;;33.92;;
27412;SDS011;14871;52.702;5.230;2023-09-18T00:04:05;45.90;;;32.33;;
27412;SDS011;14871;52.702;5.230;2023-09-18T00:06:32;47.90;;;33.63;;
27412;SDS011;14871;52.702;5.230;2023-09-18T00:08:58;43.35;;;30.27;;
27412;SDS011;14871;52.702;5.230;2023-09-18T00:11:24;42.95;;;31.00;;
27412;SDS011;14871;52.702;5.230;2023-09-18T00:13:49;44.60;;;30.80;;
27412;SDS011;14871;52.702;5.230;2023-09-18T00:16:15;39.60;;;30.27;;
27412;SDS011;14871;52.702;5.230;2023-09-18T00:18:42;38.55;;;29.17;;
27412;SDS011;14871;52.702;5.230;2023-09-18T00:21:09;38.67;;;28.60;;
27412;SDS011;14871;52.702;5.230;2023-09-18T00:23:36;37.20;;;28.15;;
27412;SDS011;14871;52.702;5.230;2023-09-18T00:26:02;34.75;;;27.13;;
27412;SDS011;14871;52.702;5.230;2023-09-18T00:28:28;37.90;;;27.55;;
27412;SDS011;14871;52.702;5.230;2023-09-18T00:30:54;33.45;;;25.92;;
27412;SDS011;14871;52.702;5.230;2023-09-18T00:33:20;33.92;;;26.15;;
27412;SDS011;14871;52.702;5.230;2023-09-18T00:35:46;32.28;;;26.05;;
27412;SDS011;14871;52.702;5.230;2023-09-18T00:38:12;34.28;;;25.73;;
27412;SDS011;14871;52.702;5.230;2023-09-18T00:40:38;34.33;;;26.60;;
27412;SDS011;14871;52.702;5.230;2023-09-18T00:43:04;31.25;;;24.50;;
27412;SDS011;14871;52.702;5.230;2023-09-18T00:45:29;30.80;;;25.02;;
27412;SDS011;14871;52.702;5.230;2023-09-18T00:47:55;28.73;;;23.65;;
27412;SDS011;14871;52.702;5.230;2023-09-18T00:50:21;28.60;;;24.10;;
27412;SDS011;14871;52.702;5.230;2023-09-18T00:52:47;33.42;;;25.10;;
27412;SDS011;14871;52.702;5.230;2023-09-18T00:55:14;31.33;;;23.70;;
27412;SDS011;14871;52.702;5.230;2023-09-18T00:57:40;32.65;;;24.52;;
27412;SDS011;14871;52.702;5.230;2023-09-18T01:00:06;30.45;;;23.40;;
27412;SDS011;14871;52.702;5.230;2023-09-18T01:02:32;34.47;;;23.23;;
27412;SDS011;14871;52.702;5.230;2023-09-18T01:04:58;34.28;;;23.95;;
27412;SDS011;14871;52.702;5.230;2023-09-18T01:07:23;30.38;;;24.33;;
27412;SDS011;14871;52.702;5.230;2023-09-18T01:09:49;29.60;;;23.98;;
27412;SDS011;14871;52.702;5.230;2023-09-18T01:12:21;31.30;;;25.05;;
27412;SDS011;14871;52.702;5.230;2023-09-18T01:14:57;30.65;;;24.05;;
27412;SDS011;14871;52.702;5.230;2023-09-18T01:17:34;28.65;;;24.17;;
27412;SDS011;14871;52.702;5.230;2023-09-18T01:20:03;30.95;;;24.38;;
27412;SDS011;14871;52.702;5.230;2023-09-18T01:22:30;31.83;;;24.02;;
27412;SDS011;14871;52.702;5.230;2023-09-18T01:24:57;29.90;;;23.90;;
27412;SDS011;14871;52.702;5.230;2023-09-18T01:27:23;31.42;;;24.48;;
27412;SDS011;14871;52.702;5.230;2023-09-18T01:29:48;32.08;;;23.25;;
27412;SDS011;14871;52.702;5.230;2023-09-18T01:32:14;28.38;;;23.92;;
27412;SDS011;14871;52.702;5.230;2023-09-18T01:34:42;30.80;;;24.13;;
27412;SDS011;14871;52.702;5.230;2023-09-18T01:37:19;31.67;;;25.48;;
27412;SDS011;14871;52.702;5.230;2023-09-18T01:39:48;30.48;;;25.52;;
27412;SDS011;14871;52.702;5.230;2023-09-18T01:42:15;32.88;;;24.15;;
27412;SDS011;14871;52.702;5.230;2023-09-18T01:44:41;29.45;;;25.35;;
27412;SDS011;14871;52.702;5.230;2023-09-18T01:47:09;29.65;;;24.10;;
27412;SDS011;14871;52.702;5.230;2023-09-18T01:49:38;31.48;;;24.10;;
27412;SDS011;14871;52.702;5.230;2023-09-18T01:52:05;27.60;;;24.00;;
27412;SDS011;14871;52.702;5.230;2023-09-18T01:54:33;28.88;;;24.17;;
27412;SDS011;14871;52.702;5.230;2023-09-18T01:56:59;28.27;;;22.15;;
27412;SDS011;14871;52.702;5.230;2023-09-18T01:59:26;27.73;;;21.50;;
27412;SDS011;14871;52.702;5.230;2023-09-18T02:01:52;24.10;;;21.00;;
27412;SDS011;14871;52.702;5.230;2023-09-18T02:04:21;24.98;;;20.92;;
27412;SDS011;14871;52.702;5.230;2023-09-18T02:06:48;24.02;;;19.30;;
27412;SDS011;14871;52.702;5.230;2023-09-18T02:09:15;24.17;;;20.33;;
27412;SDS011;14871;52.702;5.230;2023-09-18T02:11:42;23.90;;;18.58;;
27412;SDS011;14871;52.702;5.230;2023-09-18T02:14:09;22.63;;;19.58;;
27412;SDS011;14871;52.702;5.230;2023-09-18T02:16:35;21.63;;;17.27;;
27412;SDS011;14871;52.702;5.230;2023-09-18T02:19:02;22.77;;;18.50;;
27412;SDS011;14871;52.702;5.230;2023-09-18T02:21:29;22.80;;;18.63;;
27412;SDS011;14871;52.702;5.230;2023-09-18T02:23:55;24.23;;;18.42;;
27412;SDS011;14871;52.702;5.230;2023-09-18T02:26:21;24.02;;;18.45;;
27412;SDS011;14871;52.702;5.230;2023-09-18T02:28:48;22.55;;;19.35;;
27412;SDS011;14871;52.702;5.230;2023-09-18T02:31:14;22.80;;;19.70;;
27412;SDS011;14871;52.702;5.230;2023-09-18T02:33:40;21.10;;;18.48;;
27412;SDS011;14871;52.702;5.230;2023-09-18T02:36:07;23.20;;;17.98;;
27412;SDS011;14871;52.702;5.230;2023-09-18T02:38:32;23.55;;;18.67;;
27412;SDS011;14871;52.702;5.230;2023-09-18T02:40:59;23.00;;;19.05;;
27412;SDS011;14871;52.702;5.230;2023-09-18T02:43:25;23.20;;;18.63;;
27412;SDS011;14871;52.702;5.230;2023-09-18T02:45:51;23.00;;;20.27;;
27412;SDS011;14871;52.702;5.230;2023-09-18T02:48:17;22.63;;;18.95;;
27412;SDS011;14871;52.702;5.230;2023-09-18T02:50:43;22.90;;;18.40;;
27412;SDS011;14871;52.702;5.230;2023-09-18T02:55:48;22.58;;;20.17;;
27412;SDS011;14871;52.702;5.230;2023-09-18T02:58:15;25.30;;;21.23;;
27412;SDS011;14871;52.702;5.230;2023-09-18T03:00:41;25.42;;;21.23;;
27412;SDS011;14871;52.702;5.230;2023-09-18T03:03:11;26.25;;;22.00;;
27412;SDS011;14871;52.702;5.230;2023-09-18T03:05:37;26.25;;;21.77;;
27412;SDS011;14871;52.702;5.230;2023-09-18T03:08:04;29.05;;;21.58;;
27412;SDS011;14871;52.702;5.230;2023-09-18T03:10:36;24.90;;;22.15;;
27412;SDS011;14871;52.702;5.230;2023-09-18T03:13:04;26.35;;;21.45;;
27412;SDS011;14871;52.702;5.230;2023-09-18T03:15:31;26.75;;;22.45;;
27412;SDS011;14871;52.702;5.230;2023-09-18T03:17:57;29.27;;;21.85;;
27412;SDS011;14871;52.702;5.230;2023-09-18T03:20:24;24.15;;;21.23;;
27412;SDS011;14871;52.702;5.230;2023-09-18T03:22:51;27.58;;;22.52;;
27412;SDS011;14871;52.702;5.230;2023-09-18T03:25:17;28.27;;;22.45;;
27412;SDS011;14871;52.702;5.230;2023-09-18T03:27:43;29.15;;;22.35;;
27412;SDS011;14871;52.702;5.230;2023-09-18T03:30:08;28.52;;;22.23;;
27412;SDS011;14871;52.702;5.230;2023-09-18T03:32:37;25.52;;;22.48;;
27412;SDS011;14871;52.702;5.230;2023-09-18T03:35:03;27.55;;;23.30;;
27412;SDS011;14871;52.702;5.230;2023-09-18T03:37:29;24.98;;;22.27;;
27412;SDS011;14871;52.702;5.230;2023-09-18T03:39:55;26.33;;;22.63;;
27412;SDS011;14871;52.702;5.230;2023-09-18T03:42:21;30.17;;;23.50;;
27412;SDS011;14871;52.702;5.230;2023-09-18T03:44:46;27.25;;;22.52;;
27412;SDS011;14871;52.702;5.230;2023-09-18T03:47:12;28.40;;;21.90;;
27412;SDS011;14871;52.702;5.230;2023-09-18T03:49:37;29.40;;;22.33;;
27412;SDS011;14871;52.702;5.230;2023-09-18T03:52:03;26.23;;;21.15;;
27412;SDS011;14871;52.702;5.230;2023-09-18T03:54:28;28.70;;;22.27;;
27412;SDS011;14871;52.702;5.230;2023-09-18T03:56:54;26.20;;;21.35;;
27412;SDS011;14871;52.702;5.230;2023-09-18T03:59:20;27.08;;;21.50;;
27412;SDS011;14871;52.702;5.230;2023-09-18T04:01:45;28.58;;;21.73;;
27412;SDS011;14871;52.702;5.230;2023-09-18T04:04:11;29.35;;;22.73;;
27412;SDS011;14871;52.702;5.230;2023-09-18T04:06:37;29.80;;;21.55;;
27412;SDS011;14871;52.702;5.230;2023-09-18T04:09:07;30.67;;;21.90;;
27412;SDS011;14871;52.702;5.230;2023-09-18T04:11:33;28.13;;;22.52;;
27412;SDS011;14871;52.702;5.230;2023-09-18T04:13:59;28.95;;;22.00;;
27412;SDS011;14871;52.702;5.230;2023-09-18T04:16:25;27.27;;;22.25;;
27412;SDS011;14871;52.702;5.230;2023-09-18T04:18:52;24.90;;;21.42;;
27412;SDS011;14871;52.702;5.230;2023-09-18T04:21:18;26.02;;;22.38;;
27412;SDS011;14871;52.702;5.230;2023-09-18T04:23:46;26.85;;;21.73;;
27412;SDS011;14871;52.702;5.230;2023-09-18T04:26:12;28.73;;;21.08;;
27412;SDS011;14871;52.702;5.230;2023-09-18T04:28:40;23.45;;;20.73;;
27412;SDS011;14871;52.702;5.230;2023-09-18T04:31:06;27.75;;;21.23;;
27412;SDS011;14871;52.702;5.230;2023-09-18T04:33:32;25.45;;;20.83;;
27412;SDS011;14871;52.702;5.230;2023-09-18T04:35:58;27.02;;;20.95;;
27412;SDS011;14871;52.702;5.230;2023-09-18T04:38:24;22.90;;;20.42;;
27412;SDS011;14871;52.702;5.230;2023-09-18T04:40:49;22.75;;;18.63;;
27412;SDS011;14871;52.702;5.230;2023-09-18T04:43:23;23.30;;;19.27;;
27412;SDS011;14871;52.702;5.230;2023-09-18T04:45:50;26.48;;;18.63;;
27412;SDS011;14871;52.702;5.230;2023-09-18T04:48:15;26.42;;;19.98;;
27412;SDS011;14871;52.702;5.230;2023-09-18T04:50:41;23.52;;;19.98;;
27412;SDS011;14871;52.702;5.230;2023-09-18T04:53:08;28.55;;;20.73;;
27412;SDS011;14871;52.702;5.230;2023-09-18T04:55:33;25.17;;;18.63;;
27412;SDS011;14871;52.702;5.230;2023-09-18T04:57:59;27.90;;;19.92;;
27412;SDS011;14871;52.702;5.230;2023-09-18T05:00:25;27.27;;;20.23;;
27412;SDS011;14871;52.702;5.230;2023-09-18T05:02:52;27.80;;;15.25;;
27412;SDS011;14871;52.702;5.230;2023-09-18T05:05:17;25.33;;;18.25;;
27412;SDS011;14871;52.702;5.230;2023-09-18T05:07:43;27.90;;;20.25;;
27412;SDS011;14871;52.702;5.230;2023-09-18T05:10:09;26.75;;;19.30;;
27412;SDS011;14871;52.702;5.230;2023-09-18T05:12:38;27.58;;;19.20;;
27412;SDS011;14871;52.702;5.230;2023-09-18T05:15:04;28.00;;;18.02;;
27412;SDS011;14871;52.702;5.230;2023-09-18T05:20:25;17.45;;;10.02;;
27412;SDS011;14871;52.702;5.230;2023-09-18T05:22:54;11.57;;;7.70;;
27412;SDS011;14871;52.702;5.230;2023-09-18T05:25:21;9.40;;;3.80;;
27412;SDS011;14871;52.702;5.230;2023-09-18T05:27:48;8.80;;;3.05;;
27412;SDS011;14871;52.702;5.230;2023-09-18T05:30:21;6.03;;;2.67;;
27412;SDS011;14871;52.702;5.230;2023-09-18T05:32:59;6.68;;;2.50;;
27412;SDS011;14871;52.702;5.230;2023-09-18T05:35:36;5.88;;;2.10;;
27412;SDS011;14871;52.702;5.230;2023-09-18T05:38:06;4.72;;;1.77;;
27412;SDS011;14871;52.702;5.230;2023-09-18T05:40:32;4.45;;;1.65;;
27412;SDS011;14871;52.702;5.230;2023-09-18T05:42:58;6.15;;;1.70;;
27412;SDS011;14871;52.702;5.230;2023-09-18T05:45:24;3.92;;;1.98;;
27412;SDS011;14871;52.702;5.230;2023-09-18T05:47:51;7.00;;;1.92;;
27412;SDS011;14871;52.702;5.230;2023-09-18T05:50:18;7.80;;;2.55;;
27412;SDS011;14871;52.702;5.230;2023-09-18T05:52:44;10.02;;;2.95;;
27412;SDS011;14871;52.702;5.230;2023-09-18T05:55:11;8.77;;;3.20;;
27412;SDS011;14871;52.702;5.230;2023-09-18T05:57:37;7.43;;;3.03;;
27412;SDS011;14871;52.702;5.230;2023-09-18T06:00:03;6.90;;;2.70;;
27412;SDS011;14871;52.702;5.230;2023-09-18T06:02:30;4.95;;;2.58;;
27412;SDS011;14871;52.702;5.230;2023-09-18T06:04:56;6.68;;;3.17;;
27412;SDS011;14871;52.702;5.230;2023-09-18T06:07:24;7.93;;;3.42;;
27412;SDS011;14871;52.702;5.230;2023-09-18T06:09:49;5.55;;;2.85;;
27412;SDS011;14871;52.702;5.230;2023-09-18T06:12:15;9.02;;;3.97;;
27412;SDS011;14871;52.702;5.230;2023-09-18T06:14:41;6.60;;;3.42;;
27412;SDS011;14871;52.702;5.230;2023-09-18T06:17:07;9.65;;;3.78;;
27412;SDS011;14871;52.702;5.230;2023-09-18T06:19:34;11.90;;;3.72;;
27412;SDS011;14871;52.702;5.230;2023-09-18T06:22:00;8.45;;;3.20;;
27412;SDS011;14871;52.702;5.230;2023-09-18T06:24:26;6.30;;;3.20;;
27412;SDS011;14871;52.702;5.230;2023-09-18T06:26:51;6.90;;;3.50;;
27412;SDS011;14871;52.702;5.230;2023-09-18T06:29:18;8.75;;;3.40;;
27412;SDS011;14871;52.702;5.230;2023-09-18T06:31:43;10.00;;;3.40;;
27412;SDS011;14871;52.702;5.230;2023-09-18T06:34:09;8.88;;;3.63;;
27412;SDS011;14871;52.702;5.230;2023-09-18T06:36:35;9.65;;;4.25;;
27412;SDS011;14871;52.702;5.230;2023-09-18T06:39:00;10.63;;;4.30;;
27412;SDS011;14871;52.702;5.230;2023-09-18T06:41:26;9.75;;;4.70;;
27412;SDS011;14871;52.702;5.230;2023-09-18T06:43:51;8.38;;;4.82;;
27412;SDS011;14871;52.702;5.230;2023-09-18T06:46:17;11.35;;;5.40;;
27412;SDS011;14871;52.702;5.230;2023-09-18T06:48:43;12.18;;;6.35;;
27412;SDS011;14871;52.702;5.230;2023-09-18T06:51:10;8.63;;;5.93;;
27412;SDS011;14871;52.702;5.230;2023-09-18T06:53:36;12.73;;;6.07;;
27412;SDS011;14871;52.702;5.230;2023-09-18T06:56:02;16.52;;;6.80;;
27412;SDS011;14871;52.702;5.230;2023-09-18T06:58:27;15.15;;;8.60;;
27412;SDS011;14871;52.702;5.230;2023-09-18T07:00:53;10.93;;;6.95;;
27412;SDS011;14871;52.702;5.230;2023-09-18T07:03:19;10.07;;;7.22;;
27412;SDS011;14871;52.702;5.230;2023-09-18T07:05:44;14.32;;;8.05;;
27412;SDS011;14871;52.702;5.230;2023-09-18T07:08:11;12.95;;;8.10;;
27412;SDS011;14871;52.702;5.230;2023-09-18T07:10:38;14.00;;;8.43;;
27412;SDS011;14871;52.702;5.230;2023-09-18T07:13:05;17.55;;;9.13;;
27412;SDS011;14871;52.702;5.230;2023-09-18T07:15:30;15.40;;;9.55;;
27412;SDS011;14871;52.702;5.230;2023-09-18T07:17:56;18.08;;;10.90;;
27412;SDS011;14871;52.702;5.230;2023-09-18T07:20:21;19.58;;;10.20;;
27412;SDS011;14871;52.702;5.230;2023-09-18T07:22:49;18.55;;;10.95;;
27412;SDS011;14871;52.702;5.230;2023-09-18T07:25:15;15.68;;;10.77;;
27412;SDS011;14871;52.702;5.230;2023-09-18T07:27:41;13.95;;;9.60;;
27412;SDS011;14871;52.702;5.230;2023-09-18T07:30:11;16.83;;;10.93;;
27412;SDS011;14871;52.702;5.230;2023-09-18T07:32:39;16.85;;;10.25;;
27412;SDS011;14871;52.702;5.230;2023-09-18T07:35:08;18.10;;;11.27;;
27412;SDS011;14871;52.702;5.230;2023-09-18T07:37:35;20.73;;;12.48;;
27412;SDS011;14871;52.702;5.230;2023-09-18T07:40:02;22.48;;;11.57;;
27412;SDS011;14871;52.702;5.230;2023-09-18T07:42:29;19.55;;;11.88;;
27412;SDS011;14871;52.702;5.230;2023-09-18T07:44:54;16.92;;;11.85;;
27412;SDS011;14871;52.702;5.230;2023-09-18T07:47:20;17.15;;;12.02;;
27412;SDS011;14871;52.702;5.230;2023-09-18T07:49:47;20.65;;;12.00;;
27412;SDS011;14871;52.702;5.230;2023-09-18T07:52:13;17.83;;;11.82;;
27412;SDS011;14871;52.702;5.230;2023-09-18T07:54:39;18.50;;;12.82;;
27412;SDS011;14871;52.702;5.230;2023-09-18T07:57:05;20.13;;;13.35;;
27412;SDS011;14871;52.702;5.230;2023-09-18T07:59:34;19.45;;;13.60;;
27412;SDS011;14871;52.702;5.230;2023-09-18T08:02:00;24.00;;;14.48;;
27412;SDS011;14871;52.702;5.230;2023-09-18T08:04:26;21.67;;;15.20;;
27412;SDS011;14871;52.702;5.230;2023-09-18T08:06:51;23.30;;;15.07;;
27412;SDS011;14871;52.702;5.230;2023-09-18T08:09:17;25.42;;;16.60;;
27412;SDS011;14871;52.702;5.230;2023-09-18T08:11:42;20.00;;;14.88;;
27412;SDS011;14871;52.702;5.230;2023-09-18T08:14:09;25.00;;;14.90;;
27412;SDS011;14871;52.702;5.230;2023-09-18T08:16:34;20.70;;;14.60;;
27412;SDS011;14871;52.702;5.230;2023-09-18T08:19:02;20.13;;;14.18;;
27412;SDS011;14871;52.702;5.230;2023-09-18T08:21:28;20.35;;;13.63;;
27412;SDS011;14871;52.702;5.230;2023-09-18T08:23:54;21.85;;;12.90;;
27412;SDS011;14871;52.702;5.230;2023-09-18T08:26:20;21.65;;;13.13;;
27412;SDS011;14871;52.702;5.230;2023-09-18T08:28:47;18.33;;;12.63;;
27412;SDS011;14871;52.702;5.230;2023-09-18T08:31:12;20.75;;;12.70;;
27412;SDS011;14871;52.702;5.230;2023-09-18T08:33:39;22.55;;;13.55;;
27412;SDS011;14871;52.702;5.230;2023-09-18T08:36:04;20.63;;;13.35;;
27412;SDS011;14871;52.702;5.230;2023-09-18T08:38:30;20.92;;;13.15;;
27412;SDS011;14871;52.702;5.230;2023-09-18T08:40:57;21.42;;;13.82;;
27412;SDS011;14871;52.702;5.230;2023-09-18T08:43:22;21.65;;;14.70;;
27412;SDS011;14871;52.702;5.230;2023-09-18T08:45:53;32.90;;;16.55;;
27412;SDS011;14871;52.702;5.230;2023-09-18T08:48:20;22.63;;;15.20;;
27412;SDS011;14871;52.702;5.230;2023-09-18T08:50:47;21.40;;;14.93;;
27412;SDS011;14871;52.702;5.230;2023-09-18T08:53:13;19.67;;;15.52;;
27412;SDS011;14871;52.702;5.230;2023-09-18T08:55:40;23.33;;;15.10;;
27412;SDS011;14871;52.702;5.230;2023-09-18T08:58:06;21.63;;;15.95;;
27412;SDS011;14871;52.702;5.230;2023-09-18T09:00:32;22.10;;;15.18;;
27412;SDS011;14871;52.702;5.230;2023-09-18T09:03:00;24.98;;;16.33;;
27412;SDS011;14871;52.702;5.230;2023-09-18T09:05:26;23.70;;;18.88;;
27412;SDS011;14871;52.702;5.230;2023-09-18T09:07:52;24.33;;;18.10;;
27412;SDS011;14871;52.702;5.230;2023-09-18T09:10:17;18.17;;;16.27;;
27412;SDS011;14871;52.702;5.230;2023-09-18T09:12:51;20.52;;;16.35;;
27412;SDS011;14871;52.702;5.230;2023-09-18T09:17:45;17.35;;;14.27;;
27412;SDS011;14871;52.702;5.230;2023-09-18T09:20:12;17.63;;;12.80;;
27412;SDS011;14871;52.702;5.230;2023-09-18T09:22:40;16.92;;;13.88;;
27412;SDS011;14871;52.702;5.230;2023-09-18T09:25:26;20.20;;;13.73;;
27412;SDS011;14871;52.702;5.230;2023-09-18T09:27:53;15.38;;;12.82;;
27412;SDS011;14871;52.702;5.230;2023-09-18T09:30:24;14.85;;;13.18;;
27412;SDS011;14871;52.702;5.230;2023-09-18T09:32:52;16.42;;;11.02;;
27412;SDS011;14871;52.702;5.230;2023-09-18T09:37:52;13.10;;;9.85;;
27412;SDS011;14871;52.702;5.230;2023-09-18T09:40:20;11.70;;;8.65;;
27412;SDS011;14871;52.702;5.230;2023-09-18T09:42:46;12.18;;;8.35;;
27412;SDS011;14871;52.702;5.230;2023-09-18T09:45:13;8.65;;;5.03;;
27412;SDS011;14871;52.702;5.230;2023-09-18T09:47:43;7.00;;;4.72;;
27412;SDS011;14871;52.702;5.230;2023-09-18T09:50:10;6.30;;;4.15;;
27412;SDS011;14871;52.702;5.230;2023-09-18T09:52:45;5.20;;;4.35;;
27412;SDS011;14871;52.702;5.230;2023-09-18T09:55:32;5.07;;;4.30;;
27412;SDS011;14871;52.702;5.230;2023-09-18T09:58:06;8.20;;;5.25;;
27412;SDS011;14871;52.702;5.230;2023-09-18T10:03:08;10.07;;;4.65;;
27412;SDS011;14871;52.702;5.230;2023-09-18T10:05:36;5.68;;;4.35;;
27412;SDS011;14871;52.702;5.230;2023-09-18T10:08:07;6.55;;;3.50;;
27412;SDS011;14871;52.702;5.230;2023-09-18T10:10:38;5.05;;;3.47;;
27412;SDS011;14871;52.702;5.230;2023-09-18T10:13:12;6.38;;;4.07;;
27412;SDS011;14871;52.702;5.230;2023-09-18T10:15:42;8.02;;;3.90;;
27412;SDS011;14871;52.702;5.230;2023-09-18T10:18:12;6.35;;;3.92;;
27412;SDS011;14871;52.702;5.230;2023-09-18T10:20:50;6.07;;;3.15;;
27412;SDS011;14871;52.702;5.230;2023-09-18T10:23:23;7.03;;;3.60;;
27412;SDS011;14871;52.702;5.230;2023-09-18T10:25:59;5.30;;;3.22;;
27412;SDS011;14871;52.702;5.230;2023-09-18T10:28:28;5.00;;;3.10;;
27412;SDS011;14871;52.702;5.230;2023-09-18T10:30:56;6.13;;;3.72;;
27412;SDS011;14871;52.702;5.230;2023-09-18T10:33:23;6.50;;;3.67;;
27412;SDS011;14871;52.702;5.230;2023-09-18T10:35:50;6.32;;;4.20;;
27412;SDS011;14871;52.702;5.230;2023-09-18T10:38:18;7.72;;;3.92;;
27412;SDS011;14871;52.702;5.230;2023-09-18T10:40:46;5.32;;;3.92;;
27412;SDS011;14871;52.702;5.230;2023-09-18T10:43:12;5.82;;;3.70;;
27412;SDS011;14871;52.702;5.230;2023-09-18T10:45:41;5.40;;;3.72;;
27412;SDS011;14871;52.702;5.230;2023-09-18T10:48:09;7.93;;;3.83;;
27412;SDS011;14871;52.702;5.230;2023-09-18T10:50:36;7.75;;;5.05;;
27412;SDS011;14871;52.702;5.230;2023-09-18T10:53:02;6.75;;;4.60;;
27412;SDS011;14871;52.702;5.230;2023-09-18T10:55:27;6.00;;;4.75;;
27412;SDS011;14871;52.702;5.230;2023-09-18T10:57:54;6.50;;;4.70;;
27412;SDS011;14871;52.702;5.230;2023-09-18T11:00:21;6.93;;;4.72;;
27412;SDS011;14871;52.702;5.230;2023-09-18T11:02:53;6.53;;;4.72;;
27412;SDS011;14871;52.702;5.230;2023-09-18T11:05:34;5.22;;;4.25;;
27412;SDS011;14871;52.702;5.230;2023-09-18T11:10:59;5.97;;;4.13;;
27412;SDS011;14871;52.702;5.230;2023-09-18T11:13:36;10.40;;;5.18;;
27412;SDS011;14871;52.702;5.230;2023-09-18T11:18:51;4.80;;;4.30;;
27412;SDS011;14871;52.702;5.230;2023-09-18T11:21:24;5.07;;;4.63;;
27412;SDS011;14871;52.702;5.230;2023-09-18T11:24:01;5.63;;;4.20;;
27412;SDS011;14871;52.702;5.230;2023-09-18T11:26:32;7.57;;;4.40;;
27412;SDS011;14871;52.702;5.230;2023-09-18T11:29:09;5.20;;;4.10;;
27412;SDS011;14871;52.702;5.230;2023-09-18T11:34:25;7.88;;;3.97;;
27412;SDS011;14871;52.702;5.230;2023-09-18T11:37:01;5.13;;;3.97;;
27412;SDS011;14871;52.702;5.230;2023-09-18T11:39:32;6.35;;;3.90;;
27412;SDS011;14871;52.702;5.230;2023-09-18T11:44:35;7.70;;;4.35;;
27412;SDS011;14871;52.702;5.230;2023-09-18T11:47:06;6.05;;;4.13;;
27412;SDS011;14871;52.702;5.230;2023-09-18T11:49:33;7.15;;;3.75;;
27412;SDS011;14871;52.702;5.230;2023-09-18T11:52:00;5.30;;;3.63;;
27412;SDS011;14871;52.702;5.230;2023-09-18T11:54:28;5.80;;;3.60;;
27412;SDS011;14871;52.702;5.230;2023-09-18T11:56:54;6.80;;;3.90;;
27412;SDS011;14871;52.702;5.230;2023-09-18T11:59:32;4.07;;;3.70;;
27412;SDS011;14871;52.702;5.230;2023-09-18T12:02:02;5.13;;;3.85;;
27412;SDS011;14871;52.702;5.230;2023-09-18T12:04:31;4.15;;;3.53;;
27412;SDS011;14871;52.702;5.230;2023-09-18T12:07:00;5.10;;;3.92;;
27412;SDS011;14871;52.702;5.230;2023-09-18T12:09:28;6.45;;;4.35;;
27412;SDS011;14871;52.702;5.230;2023-09-18T12:11:55;5.95;;;4.07;;
27412;SDS011;14871;52.702;5.230;2023-09-18T12:14:22;4.40;;;4.00;;
27412;SDS011;14871;52.702;5.230;2023-09-18T12:16:48;4.38;;;3.80;;
27412;SDS011;14871;52.702;5.230;2023-09-18T12:19:18;6.75;;;4.57;;
27412;SDS011;14871;52.702;5.230;2023-09-18T12:21:47;4.70;;;4.10;;
27412;SDS011;14871;52.702;5.230;2023-09-18T12:24:23;4.43;;;3.70;;
27412;SDS011;14871;52.702;5.230;2023-09-18T12:26:53;4.72;;;3.55;;
27412;SDS011;14871;52.702;5.230;2023-09-18T12:29:23;4.40;;;3.17;;
27412;SDS011;14871;52.702;5.230;2023-09-18T12:31:56;6.40;;;3.45;;
27412;SDS011;14871;52.702;5.230;2023-09-18T12:34:21;9.02;;;4.35;;
27412;SDS011;14871;52.702;5.230;2023-09-18T12:36:48;5.95;;;3.70;;
27412;SDS011;14871;52.702;5.230;2023-09-18T12:39:15;4.55;;;4.13;;
27412;SDS011;14871;52.702;5.230;2023-09-18T12:41:41;7.97;;;4.82;;
27412;SDS011;14871;52.702;5.230;2023-09-18T12:44:09;6.38;;;3.83;;
27412;SDS011;14871;52.702;5.230;2023-09-18T12:46:35;4.43;;;3.25;;
27412;SDS011;14871;52.702;5.230;2023-09-18T12:49:18;5.63;;;3.58;;
27412;SDS011;14871;52.702;5.230;2023-09-18T12:51:53;7.75;;;3.95;;
27412;SDS011;14871;52.702;5.230;2023-09-18T12:54:35;4.75;;;3.28;;
27412;SDS011;14871;52.702;5.230;2023-09-18T12:57:04;5.50;;;3.10;;
27412;SDS011;14871;52.702;5.230;2023-09-18T12:59:37;5.45;;;3.63;;
27412;SDS011;14871;52.702;5.230;2023-09-18T13:02:03;4.10;;;2.92;;
27412;SDS011;14871;52.702;5.230;2023-09-18T13:04:31;3.38;;;3.08;;
27412;SDS011;14871;52.702;5.230;2023-09-18T13:09:37;6.78;;;4.20;;
27412;SDS011;14871;52.702;5.230;2023-09-18T13:12:03;7.07;;;3.25;;
27412;SDS011;14871;52.702;5.230;2023-09-18T13:14:30;6.38;;;3.72;;
27412;SDS011;14871;52.702;5.230;2023-09-18T13:17:01;5.80;;;3.90;;
27412;SDS011;14871;52.702;5.230;2023-09-18T13:19:29;5.87;;;4.23;;
27412;SDS011;14871;52.702;5.230;2023-09-18T13:21:55;7.10;;;4.63;;
27412;SDS011;14871;52.702;5.230;2023-09-18T13:24:28;5.32;;;4.80;;
27412;SDS011;14871;52.702;5.230;2023-09-18T13:29:23;8.88;;;5.43;;
27412;SDS011;14871;52.702;5.230;2023-09-18T13:31:50;7.25;;;5.65;;
27412;SDS011;14871;52.702;5.230;2023-09-18T13:34:16;6.03;;;4.72;;
27412;SDS011;14871;52.702;5.230;2023-09-18T13:36:43;10.18;;;5.03;;
27412;SDS011;14871;52.702;5.230;2023-09-18T13:39:10;7.22;;;5.18;;
27412;SDS011;14871;52.702;5.230;2023-09-18T13:41:37;7.28;;;4.50;;
27412;SDS011;14871;52.702;5.230;2023-09-18T13:44:03;8.60;;;4.68;;
27412;SDS011;14871;52.702;5.230;2023-09-18T13:46:29;7.55;;;4.20;;
27412;SDS011;14871;52.702;5.230;2023-09-18T13:48:54;5.25;;;4.75;;
27412;SDS011;14871;52.702;5.230;2023-09-18T13:51:20;6.57;;;4.57;;
27412;SDS011;14871;52.702;5.230;2023-09-18T13:53:46;4.65;;;4.03;;
27412;SDS011;14871;52.702;5.230;2023-09-18T13:56:13;6.85;;;4.72;;
27412;SDS011;14871;52.702;5.230;2023-09-18T13:58:38;6.60;;;3.55;;
27412;SDS011;14871;52.702;5.230;2023-09-18T14:01:06;4.90;;;4.35;;
27412;SDS011;14871;52.702;5.230;2023-09-18T14:03:32;4.47;;;3.85;;
27412;SDS011;14871;52.702;5.230;2023-09-18T14:05:58;6.32;;;4.10;;
27412;SDS011;14871;52.702;5.230;2023-09-18T14:08:24;5.50;;;4.13;;
27412;SDS011;14871;52.702;5.230;2023-09-18T14:10:49;5.22;;;4.10;;
27412;SDS011;14871;52.702;5.230;2023-09-18T14:13:15;9.32;;;4.63;;
27412;SDS011;14871;52.702;5.230;2023-09-18T14:15:42;7.45;;;4.25;;
27412;SDS011;14871;52.702;5.230;2023-09-18T14:18:08;6.05;;;4.03;;
27412;SDS011;14871;52.702;5.230;2023-09-18T14:20:34;8.75;;;4.10;;
27412;SDS011;14871;52.702;5.230;2023-09-18T14:23:00;7.75;;;4.20;;
27412;SDS011;14871;52.702;5.230;2023-09-18T14:25:26;6.13;;;4.13;;
27412;SDS011;14871;52.702;5.230;2023-09-18T14:27:52;6.68;;;4.85;;
27412;SDS011;14871;52.702;5.230;2023-09-18T14:30:18;5.90;;;4.25;;
27412;SDS011;14871;52.702;5.230;2023-09-18T14:32:45;7.03;;;4.85;;
27412;SDS011;14871;52.702;5.230;2023-09-18T14:35:10;4.93;;;3.90;;
27412;SDS011;14871;52.702;5.230;2023-09-18T14:37:37;10.30;;;5.22;;
27412;SDS011;14871;52.702;5.230;2023-09-18T14:40:02;4.68;;;3.97;;
27412;SDS011;14871;52.702;5.230;2023-09-18T14:42:28;8.55;;;4.60;;
27412;SDS011;14871;52.702;5.230;2023-09-18T14:44:54;7.72;;;4.90;;
27412;SDS011;14871;52.702;5.230;2023-09-18T14:47:20;7.38;;;4.35;;
27412;SDS011;14871;52.702;5.230;2023-09-18T14:49:46;8.10;;;4.68;;
27412;SDS011;14871;52.702;5.230;2023-09-18T14:52:12;5.10;;;4.10;;
27412;SDS011;14871;52.702;5.230;2023-09-18T14:54:40;7.32;;;4.50;;
27412;SDS011;14871;52.702;5.230;2023-09-18T14:57:05;8.90;;;4.97;;
27412;SDS011;14871;52.702;5.230;2023-09-18T14:59:31;7.53;;;5.30;;
27412;SDS011;14871;52.702;5.230;2023-09-18T15:13:27;8.13;;;5.72;;
27412;SDS011;14871;52.702;5.230;2023-09-18T15:15:53;7.45;;;6.32;;